sensor_id;sensor_type;location;lat;lon;timestamp;temperature;humidity
26081;DHT22;13991;51.174;4.438;2022-08-21T00:02:20;19.40;99.90
26081;DHT22;13991;51.174;4.438;2022-08-21T00:04:49;19.20;99.90
26081;DHT22;13991;51.174;4.438;2022-08-21T00:07:18;19.10;99.90
26081;DHT22;13991;51.174;4.438;2022-08-21T00:09:44;19.20;99.90
26081;DHT22;13991;51.174;4.438;2022-08-21T00:12:15;19.10;99.90
26081;DHT22;13991;51.174;4.438;2022-08-21T00:14:47;19.10;99.90
26081;DHT22;13991;51.174;4.438;2022-08-21T00:17:13;19.10;99.90
26081;DHT22;13991;51.174;4.438;2022-08-21T00:19:41;19.00;99.90
26081;DHT22;13991;51.174;4.438;2022-08-21T00:22:09;19.00;99.90
26081;DHT22;13991;51.174;4.438;2022-08-21T00:24:35;19.00;99.90
26081;DHT22;13991;51.174;4.438;2022-08-21T00:27:01;19.00;99.90
26081;DHT22;13991;51.174;4.438;2022-08-21T00:29:35;19.00;99.90
26081;DHT22;13991;51.174;4.438;2022-08-21T00:32:00;18.90;99.90
26081;DHT22;13991;51.174;4.438;2022-08-21T00:34:27;18.90;99.90
26081;DHT22;13991;51.174;4.438;2022-08-21T00:36:56;18.90;99.90
26081;DHT22;13991;51.174;4.438;2022-08-21T00:39:38;18.80;99.90
26081;DHT22;13991;51.174;4.438;2022-08-21T00:42:06;18.80;99.90
26081;DHT22;13991;51.174;4.438;2022-08-21T00:44:33;18.80;99.90
26081;DHT22;13991;51.174;4.438;2022-08-21T00:47:01;18.70;99.90
26081;DHT22;13991;51.174;4.438;2022-08-21T00:49:28;18.70;99.90
26081;DHT22;13991;51.174;4.438;2022-08-21T00:51:59;18.60;99.90
26081;DHT22;13991;51.174;4.438;2022-08-21T00:54:27;18.70;99.90
26081;DHT22;13991;51.174;4.438;2022-08-21T00:57:02;18.50;99.90
26081;DHT22;13991;51.174;4.438;2022-08-21T00:59:34;18.60;99.90
26081;DHT22;13991;51.174;4.438;2022-08-21T01:02:08;18.60;99.90
26081;DHT22;13991;51.174;4.438;2022-08-21T01:04:35;18.50;99.90
26081;DHT22;13991;51.174;4.438;2022-08-21T01:07:05;18.50;99.90
26081;DHT22;13991;51.174;4.438;2022-08-21T01:09:35;18.50;99.90
26081;DHT22;13991;51.174;4.438;2022-08-21T01:12:13;18.50;99.90
26081;DHT22;13991;51.174;4.438;2022-08-21T01:14:48;18.40;99.90
26081;DHT22;13991;51.174;4.438;2022-08-21T01:17:17;18.40;99.90
26081;DHT22;13991;51.174;4.438;2022-08-21T01:19:44;18.30;99.90
26081;DHT22;13991;51.174;4.438;2022-08-21T01:22:18;18.30;99.90
26081;DHT22;13991;51.174;4.438;2022-08-21T01:24:44;18.30;99.90
26081;DHT22;13991;51.174;4.438;2022-08-21T01:27:13;18.30;99.90
26081;DHT22;13991;51.174;4.438;2022-08-21T01:32:18;18.20;99.90
26081;DHT22;13991;51.174;4.438;2022-08-21T01:34:48;18.20;99.90
26081;DHT22;13991;51.174;4.438;2022-08-21T01:37:20;18.20;99.90
26081;DHT22;13991;51.174;4.438;2022-08-21T01:39:47;18.20;99.90
26081;DHT22;13991;51.174;4.438;2022-08-21T01:42:14;18.10;99.90
26081;DHT22;13991;51.174;4.438;2022-08-21T01:44:52;18.10;99.90
26081;DHT22;13991;51.174;4.438;2022-08-21T01:47:22;18.30;99.90
26081;DHT22;13991;51.174;4.438;2022-08-21T01:49:51;18.10;99.90
26081;DHT22;13991;51.174;4.438;2022-08-21T01:52:19;18.10;99.90
26081;DHT22;13991;51.174;4.438;2022-08-21T01:54:45;18.00;99.90
26081;DHT22;13991;51.174;4.438;2022-08-21T01:57:13;18.10;99.90
26081;DHT22;13991;51.174;4.438;2022-08-21T01:59:40;18.00;99.90
26081;DHT22;13991;51.174;4.438;2022-08-21T02:02:07;18.00;99.90
26081;DHT22;13991;51.174;4.438;2022-08-21T02:04:33;18.00;99.90
26081;DHT22;13991;51.174;4.438;2022-08-21T02:07:00;18.00;99.90
26081;DHT22;13991;51.174;4.438;2022-08-21T02:09:26;18.00;99.90
26081;DHT22;13991;51.174;4.438;2022-08-21T02:11:52;18.00;99.90
26081;DHT22;13991;51.174;4.438;2022-08-21T02:14:20;17.90;99.90
26081;DHT22;13991;51.174;4.438;2022-08-21T02:16:46;17.90;99.90
26081;DHT22;13991;51.174;4.438;2022-08-21T02:19:14;17.90;99.90
26081;DHT22;13991;51.174;4.438;2022-08-21T02:21:40;17.90;99.90
26081;DHT22;13991;51.174;4.438;2022-08-21T02:24:06;17.90;99.90
26081;DHT22;13991;51.174;4.438;2022-08-21T02:26:32;17.90;99.90
26081;DHT22;13991;51.174;4.438;2022-08-21T02:28:58;17.90;99.90
26081;DHT22;13991;51.174;4.438;2022-08-21T02:31:25;17.80;99.90
26081;DHT22;13991;51.174;4.438;2022-08-21T02:33:53;17.80;99.90
26081;DHT22;13991;51.174;4.438;2022-08-21T02:36:18;17.70;99.90
26081;DHT22;13991;51.174;4.438;2022-08-21T02:38:44;17.70;99.90
26081;DHT22;13991;51.174;4.438;2022-08-21T02:41:19;17.80;99.90
26081;DHT22;13991;51.174;4.438;2022-08-21T02:43:48;17.70;99.90
26081;DHT22;13991;51.174;4.438;2022-08-21T02:46:20;17.70;99.90
26081;DHT22;13991;51.174;4.438;2022-08-21T02:48:47;17.70;99.90
26081;DHT22;13991;51.174;4.438;2022-08-21T02:51:17;17.70;99.90
26081;DHT22;13991;51.174;4.438;2022-08-21T02:53:55;17.60;99.90
26081;DHT22;13991;51.174;4.438;2022-08-21T02:56:26;17.50;99.90
26081;DHT22;13991;51.174;4.438;2022-08-21T02:58:55;17.40;99.90
26081;DHT22;13991;51.174;4.438;2022-08-21T03:01:23;17.50;99.90
26081;DHT22;13991;51.174;4.438;2022-08-21T03:03:50;17.40;99.90
26081;DHT22;13991;51.174;4.438;2022-08-21T03:06:28;17.30;99.90
26081;DHT22;13991;51.174;4.438;2022-08-21T03:09:02;17.40;99.90
26081;DHT22;13991;51.174;4.438;2022-08-21T03:11:29;17.40;99.90
26081;DHT22;13991;51.174;4.438;2022-08-21T03:13:54;17.40;99.90
26081;DHT22;13991;51.174;4.438;2022-08-21T03:16:20;17.40;99.90
26081;DHT22;13991;51.174;4.438;2022-08-21T03:18:47;17.30;99.90
26081;DHT22;13991;51.174;4.438;2022-08-21T03:21:35;17.40;99.90
26081;DHT22;13991;51.174;4.438;2022-08-21T03:24:01;17.50;99.90
26081;DHT22;13991;51.174;4.438;2022-08-21T03:26:38;17.50;99.90
26081;DHT22;13991;51.174;4.438;2022-08-21T03:29:07;17.50;99.90
26081;DHT22;13991;51.174;4.438;2022-08-21T03:31:43;17.50;99.90
26081;DHT22;13991;51.174;4.438;2022-08-21T03:34:14;17.50;99.90
26081;DHT22;13991;51.174;4.438;2022-08-21T03:36:43;17.60;99.90
26081;DHT22;13991;51.174;4.438;2022-08-21T03:39:11;17.60;99.90
26081;DHT22;13991;51.174;4.438;2022-08-21T03:41:39;17.60;99.90
26081;DHT22;13991;51.174;4.438;2022-08-21T03:44:08;17.50;99.90
26081;DHT22;13991;51.174;4.438;2022-08-21T03:46:33;17.60;99.90
26081;DHT22;13991;51.174;4.438;2022-08-21T03:49:02;17.60;99.90
26081;DHT22;13991;51.174;4.438;2022-08-21T03:51:31;17.60;99.90
26081;DHT22;13991;51.174;4.438;2022-08-21T03:54:01;17.50;99.90
26081;DHT22;13991;51.174;4.438;2022-08-21T03:56:28;17.50;99.90
26081;DHT22;13991;51.174;4.438;2022-08-21T03:58:54;17.60;99.90
26081;DHT22;13991;51.174;4.438;2022-08-21T04:01:20;17.50;99.90
26081;DHT22;13991;51.174;4.438;2022-08-21T04:03:47;17.40;99.90
26081;DHT22;13991;51.174;4.438;2022-08-21T04:06:13;17.40;99.90
26081;DHT22;13991;51.174;4.438;2022-08-21T04:08:38;17.30;99.90
26081;DHT22;13991;51.174;4.438;2022-08-21T04:11:05;17.20;99.90
26081;DHT22;13991;51.174;4.438;2022-08-21T04:13:31;17.20;99.90
26081;DHT22;13991;51.174;4.438;2022-08-21T04:15:57;17.20;99.90
26081;DHT22;13991;51.174;4.438;2022-08-21T04:18:25;17.20;99.90
26081;DHT22;13991;51.174;4.438;2022-08-21T04:20:52;17.30;99.90
26081;DHT22;13991;51.174;4.438;2022-08-21T04:23:20;17.30;99.90
26081;DHT22;13991;51.174;4.438;2022-08-21T04:25:48;17.40;99.90
26081;DHT22;13991;51.174;4.438;2022-08-21T04:28:14;17.40;99.90
26081;DHT22;13991;51.174;4.438;2022-08-21T04:30:39;17.30;99.90
26081;DHT22;13991;51.174;4.438;2022-08-21T04:33:06;17.40;99.90
26081;DHT22;13991;51.174;4.438;2022-08-21T04:35:38;17.30;99.90
26081;DHT22;13991;51.174;4.438;2022-08-21T04:38:05;17.40;99.90
26081;DHT22;13991;51.174;4.438;2022-08-21T04:40:39;17.30;99.90
26081;DHT22;13991;51.174;4.438;2022-08-21T04:43:07;17.40;99.90
26081;DHT22;13991;51.174;4.438;2022-08-21T04:45:41;17.40;99.90
26081;DHT22;13991;51.174;4.438;2022-08-21T04:48:11;17.30;99.90
26081;DHT22;13991;51.174;4.438;2022-08-21T04:53:42;17.30;99.90
26081;DHT22;13991;51.174;4.438;2022-08-21T04:56:18;17.30;99.90
26081;DHT22;13991;51.174;4.438;2022-08-21T04:58:54;17.30;99.90
26081;DHT22;13991;51.174;4.438;2022-08-21T05:01:27;17.20;99.90
26081;DHT22;13991;51.174;4.438;2022-08-21T05:03:57;17.10;99.90
26081;DHT22;13991;51.174;4.438;2022-08-21T05:06:28;16.90;99.90
26081;DHT22;13991;51.174;4.438;2022-08-21T05:08:55;17.00;99.90
26081;DHT22;13991;51.174;4.438;2022-08-21T05:11:21;17.10;99.90
26081;DHT22;13991;51.174;4.438;2022-08-21T05:13:48;17.10;99.90
26081;DHT22;13991;51.174;4.438;2022-08-21T05:16:13;17.10;99.90
26081;DHT22;13991;51.174;4.438;2022-08-21T05:18:39;17.20;99.90
26081;DHT22;13991;51.174;4.438;2022-08-21T05:21:05;17.20;99.90
26081;DHT22;13991;51.174;4.438;2022-08-21T05:23:31;17.10;99.90
26081;DHT22;13991;51.174;4.438;2022-08-21T05:25:56;17.10;99.90
26081;DHT22;13991;51.174;4.438;2022-08-21T05:28:22;17.20;99.90
26081;DHT22;13991;51.174;4.438;2022-08-21T05:30:49;17.30;99.90
26081;DHT22;13991;51.174;4.438;2022-08-21T05:33:14;17.40;99.90
26081;DHT22;13991;51.174;4.438;2022-08-21T05:35:40;17.50;99.90
26081;DHT22;13991;51.174;4.438;2022-08-21T05:38:06;17.50;99.90
26081;DHT22;13991;51.174;4.438;2022-08-21T05:40:32;17.60;99.90
26081;DHT22;13991;51.174;4.438;2022-08-21T05:42:58;17.60;99.90
26081;DHT22;13991;51.174;4.438;2022-08-21T05:45:32;17.50;99.90
26081;DHT22;13991;51.174;4.438;2022-08-21T05:48:04;17.70;99.90
26081;DHT22;13991;51.174;4.438;2022-08-21T05:50:30;17.70;99.90
26081;DHT22;13991;51.174;4.438;2022-08-21T05:52:56;17.70;99.90
26081;DHT22;13991;51.174;4.438;2022-08-21T05:55:22;17.80;99.90
26081;DHT22;13991;51.174;4.438;2022-08-21T05:57:47;17.80;99.90
26081;DHT22;13991;51.174;4.438;2022-08-21T06:00:14;17.90;99.90
26081;DHT22;13991;51.174;4.438;2022-08-21T06:02:40;17.90;99.90
26081;DHT22;13991;51.174;4.438;2022-08-21T06:05:06;17.90;99.90
26081;DHT22;13991;51.174;4.438;2022-08-21T06:07:32;18.10;99.90
26081;DHT22;13991;51.174;4.438;2022-08-21T06:09:58;18.40;99.90
26081;DHT22;13991;51.174;4.438;2022-08-21T06:12:23;18.90;99.90
26081;DHT22;13991;51.174;4.438;2022-08-21T06:14:50;19.20;99.90
26081;DHT22;13991;51.174;4.438;2022-08-21T06:17:17;19.60;99.90
26081;DHT22;13991;51.174;4.438;2022-08-21T06:19:43;19.70;99.90
26081;DHT22;13991;51.174;4.438;2022-08-21T06:22:09;19.70;99.90
26081;DHT22;13991;51.174;4.438;2022-08-21T06:24:35;19.30;99.90
26081;DHT22;13991;51.174;4.438;2022-08-21T06:27:07;19.40;99.90
26081;DHT22;13991;51.174;4.438;2022-08-21T06:29:34;19.30;99.90
26081;DHT22;13991;51.174;4.438;2022-08-21T06:31:59;19.10;99.90
26081;DHT22;13991;51.174;4.438;2022-08-21T06:34:25;19.10;99.90
26081;DHT22;13991;51.174;4.438;2022-08-21T06:36:51;19.00;99.90
26081;DHT22;13991;51.174;4.438;2022-08-21T06:39:17;19.00;99.90
26081;DHT22;13991;51.174;4.438;2022-08-21T06:41:43;18.90;99.90
26081;DHT22;13991;51.174;4.438;2022-08-21T06:44:09;18.90;99.90
26081;DHT22;13991;51.174;4.438;2022-08-21T06:46:34;18.90;99.90
26081;DHT22;13991;51.174;4.438;2022-08-21T06:49:00;19.00;99.90
26081;DHT22;13991;51.174;4.438;2022-08-21T06:51:27;19.20;99.90
26081;DHT22;13991;51.174;4.438;2022-08-21T06:53:53;19.30;99.90
26081;DHT22;13991;51.174;4.438;2022-08-21T06:56:19;19.30;99.90
26081;DHT22;13991;51.174;4.438;2022-08-21T06:58:45;19.50;99.90
26081;DHT22;13991;51.174;4.438;2022-08-21T07:01:11;19.50;99.90
26081;DHT22;13991;51.174;4.438;2022-08-21T07:03:39;19.60;99.90
26081;DHT22;13991;51.174;4.438;2022-08-21T07:06:07;19.50;99.90
26081;DHT22;13991;51.174;4.438;2022-08-21T07:08:34;19.50;99.90
26081;DHT22;13991;51.174;4.438;2022-08-21T07:11:02;19.40;99.90
26081;DHT22;13991;51.174;4.438;2022-08-21T07:13:28;19.50;99.90
26081;DHT22;13991;51.174;4.438;2022-08-21T07:15:54;19.60;99.90
26081;DHT22;13991;51.174;4.438;2022-08-21T07:18:20;19.70;99.90
26081;DHT22;13991;51.174;4.438;2022-08-21T07:20:46;19.80;99.90
26081;DHT22;13991;51.174;4.438;2022-08-21T07:23:19;19.90;99.90
26081;DHT22;13991;51.174;4.438;2022-08-21T07:25:47;20.00;99.90
26081;DHT22;13991;51.174;4.438;2022-08-21T07:28:12;20.00;99.90
26081;DHT22;13991;51.174;4.438;2022-08-21T07:30:38;20.10;99.90
26081;DHT22;13991;51.174;4.438;2022-08-21T07:33:04;20.10;99.90
26081;DHT22;13991;51.174;4.438;2022-08-21T07:35:29;20.10;99.90
26081;DHT22;13991;51.174;4.438;2022-08-21T07:37:56;20.00;99.90
26081;DHT22;13991;51.174;4.438;2022-08-21T07:40:22;20.00;99.90
26081;DHT22;13991;51.174;4.438;2022-08-21T07:42:48;20.10;99.90
26081;DHT22;13991;51.174;4.438;2022-08-21T07:45:20;20.20;99.90
26081;DHT22;13991;51.174;4.438;2022-08-21T07:47:47;20.30;99.90
26081;DHT22;13991;51.174;4.438;2022-08-21T07:50:13;20.40;99.90
26081;DHT22;13991;51.174;4.438;2022-08-21T07:52:41;20.30;99.90
26081;DHT22;13991;51.174;4.438;2022-08-21T07:55:09;20.50;99.90
26081;DHT22;13991;51.174;4.438;2022-08-21T07:57:35;20.70;99.90
26081;DHT22;13991;51.174;4.438;2022-08-21T08:00:03;20.60;99.90
26081;DHT22;13991;51.174;4.438;2022-08-21T08:02:30;20.60;99.90
26081;DHT22;13991;51.174;4.438;2022-08-21T08:05:04;20.60;99.90
26081;DHT22;13991;51.174;4.438;2022-08-21T08:07:30;20.60;99.90
26081;DHT22;13991;51.174;4.438;2022-08-21T08:09:55;20.70;99.90
26081;DHT22;13991;51.174;4.438;2022-08-21T08:12:21;21.00;99.90
26081;DHT22;13991;51.174;4.438;2022-08-21T08:14:47;21.30;99.90
26081;DHT22;13991;51.174;4.438;2022-08-21T08:17:13;20.90;99.90
26081;DHT22;13991;51.174;4.438;2022-08-21T08:19:39;21.10;99.90
26081;DHT22;13991;51.174;4.438;2022-08-21T08:22:15;21.20;99.90
26081;DHT22;13991;51.174;4.438;2022-08-21T08:24:41;21.20;99.90
26081;DHT22;13991;51.174;4.438;2022-08-21T08:27:07;21.40;99.90
26081;DHT22;13991;51.174;4.438;2022-08-21T08:29:33;21.60;99.90
26081;DHT22;13991;51.174;4.438;2022-08-21T08:31:59;21.70;99.90
26081;DHT22;13991;51.174;4.438;2022-08-21T08:34:25;21.70;99.90
26081;DHT22;13991;51.174;4.438;2022-08-21T08:36:50;21.70;99.90
26081;DHT22;13991;51.174;4.438;2022-08-21T08:39:16;21.70;99.90
26081;DHT22;13991;51.174;4.438;2022-08-21T08:41:44;21.70;99.90
26081;DHT22;13991;51.174;4.438;2022-08-21T08:44:12;21.80;99.90
26081;DHT22;13991;51.174;4.438;2022-08-21T08:46:41;21.80;99.90
26081;DHT22;13991;51.174;4.438;2022-08-21T08:49:23;21.80;99.90
26081;DHT22;13991;51.174;4.438;2022-08-21T08:54:29;21.30;99.90
26081;DHT22;13991;51.174;4.438;2022-08-21T08:57:01;21.30;99.90
26081;DHT22;13991;51.174;4.438;2022-08-21T08:59:38;21.30;99.90
26081;DHT22;13991;51.174;4.438;2022-08-21T09:02:05;21.50;99.90
26081;DHT22;13991;51.174;4.438;2022-08-21T09:04:31;21.90;99.90
26081;DHT22;13991;51.174;4.438;2022-08-21T09:15:36;22.50;99.90
26081;DHT22;13991;51.174;4.438;2022-08-21T09:27:09;22.60;99.90
26081;DHT22;13991;51.174;4.438;2022-08-21T09:29:37;22.90;99.90
26081;DHT22;13991;51.174;4.438;2022-08-21T09:34:54;22.60;99.90
26081;DHT22;13991;51.174;4.438;2022-08-21T09:37:20;22.40;99.90
26081;DHT22;13991;51.174;4.438;2022-08-21T09:39:45;22.50;99.90
26081;DHT22;13991;51.174;4.438;2022-08-21T09:42:11;22.40;99.90
26081;DHT22;13991;51.174;4.438;2022-08-21T09:44:46;22.30;99.90
26081;DHT22;13991;51.174;4.438;2022-08-21T09:47:12;22.50;99.90
26081;DHT22;13991;51.174;4.438;2022-08-21T09:49:40;22.40;99.90
26081;DHT22;13991;51.174;4.438;2022-08-21T09:52:18;22.20;99.90
26081;DHT22;13991;51.174;4.438;2022-08-21T09:54:45;22.10;99.90
26081;DHT22;13991;51.174;4.438;2022-08-21T09:57:16;22.40;99.90
26081;DHT22;13991;51.174;4.438;2022-08-21T10:00:25;22.50;99.90
26081;DHT22;13991;51.174;4.438;2022-08-21T10:02:51;22.70;99.90
26081;DHT22;13991;51.174;4.438;2022-08-21T10:05:23;22.90;99.90
26081;DHT22;13991;51.174;4.438;2022-08-21T10:07:50;23.00;99.90
26081;DHT22;13991;51.174;4.438;2022-08-21T10:10:36;22.80;99.90
26081;DHT22;13991;51.174;4.438;2022-08-21T10:16:08;22.40;99.90
26081;DHT22;13991;51.174;4.438;2022-08-21T10:22:05;22.60;99.90
26081;DHT22;13991;51.174;4.438;2022-08-21T10:30:25;22.30;99.90
26081;DHT22;13991;51.174;4.438;2022-08-21T10:43:55;23.20;99.90
26081;DHT22;13991;51.174;4.438;2022-08-21T10:46:46;23.00;99.90
26081;DHT22;13991;51.174;4.438;2022-08-21T10:49:36;22.90;99.90
26081;DHT22;13991;51.174;4.438;2022-08-21T10:54:46;22.80;99.90
26081;DHT22;13991;51.174;4.438;2022-08-21T10:57:23;22.70;99.90
26081;DHT22;13991;51.174;4.438;2022-08-21T10:59:59;22.70;99.90
26081;DHT22;13991;51.174;4.438;2022-08-21T11:02:33;22.90;99.90
26081;DHT22;13991;51.174;4.438;2022-08-21T11:05:24;23.20;99.90
26081;DHT22;13991;51.174;4.438;2022-08-21T11:07:57;23.40;99.90
26081;DHT22;13991;51.174;4.438;2022-08-21T11:10:42;23.10;99.90
26081;DHT22;13991;51.174;4.438;2022-08-21T11:13:16;23.00;99.90
26081;DHT22;13991;51.174;4.438;2022-08-21T11:21:45;23.20;99.90
26081;DHT22;13991;51.174;4.438;2022-08-21T11:29:31;23.40;99.90
26081;DHT22;13991;51.174;4.438;2022-08-21T11:34:40;23.90;99.90
26081;DHT22;13991;51.174;4.438;2022-08-21T11:40:08;23.80;99.90
26081;DHT22;13991;51.174;4.438;2022-08-21T11:46:10;23.70;99.90
26081;DHT22;13991;51.174;4.438;2022-08-21T11:48:40;23.70;99.90
26081;DHT22;13991;51.174;4.438;2022-08-21T11:51:12;23.80;99.90
26081;DHT22;13991;51.174;4.438;2022-08-21T11:53:46;23.80;99.90
26081;DHT22;13991;51.174;4.438;2022-08-21T11:56:51;24.10;99.90
26081;DHT22;13991;51.174;4.438;2022-08-21T12:02:14;24.20;99.90
26081;DHT22;13991;51.174;4.438;2022-08-21T12:05:08;24.40;99.90
26081;DHT22;13991;51.174;4.438;2022-08-21T12:07:43;24.40;99.90
26081;DHT22;13991;51.174;4.438;2022-08-21T12:10:13;24.10;99.90
26081;DHT22;13991;51.174;4.438;2022-08-21T12:12:41;23.80;99.90
26081;DHT22;13991;51.174;4.438;2022-08-21T12:15:16;23.70;99.90
26081;DHT22;13991;51.174;4.438;2022-08-21T12:18:03;23.80;99.90
26081;DHT22;13991;51.174;4.438;2022-08-21T12:23:14;23.40;99.90
26081;DHT22;13991;51.174;4.438;2022-08-21T12:28:29;24.30;99.90
26081;DHT22;13991;51.174;4.438;2022-08-21T12:30:56;24.50;99.90
26081;DHT22;13991;51.174;4.438;2022-08-21T12:33:30;24.40;99.90
26081;DHT22;13991;51.174;4.438;2022-08-21T12:36:19;24.20;99.90
26081;DHT22;13991;51.174;4.438;2022-08-21T12:38:57;24.10;99.90
26081;DHT22;13991;51.174;4.438;2022-08-21T12:41:30;24.10;99.90
26081;DHT22;13991;51.174;4.438;2022-08-21T12:44:17;24.30;99.90
26081;DHT22;13991;51.174;4.438;2022-08-21T12:46:51;24.20;99.90
26081;DHT22;13991;51.174;4.438;2022-08-21T12:49:30;24.00;99.90
26081;DHT22;13991;51.174;4.438;2022-08-21T12:52:09;24.40;99.90
26081;DHT22;13991;51.174;4.438;2022-08-21T12:54:42;24.50;99.90
26081;DHT22;13991;51.174;4.438;2022-08-21T12:57:09;24.20;99.90
26081;DHT22;13991;51.174;4.438;2022-08-21T12:59:42;24.10;99.90
26081;DHT22;13991;51.174;4.438;2022-08-21T13:02:17;24.10;99.90
26081;DHT22;13991;51.174;4.438;2022-08-21T13:04:44;23.90;99.90
26081;DHT22;13991;51.174;4.438;2022-08-21T13:07:13;24.00;99.80
26081;DHT22;13991;51.174;4.438;2022-08-21T13:09:51;24.10;99.90
26081;DHT22;13991;51.174;4.438;2022-08-21T13:12:19;24.40;99.90
26081;DHT22;13991;51.174;4.438;2022-08-21T13:14:46;24.30;99.30
26081;DHT22;13991;51.174;4.438;2022-08-21T13:17:18;24.40;98.80
26081;DHT22;13991;51.174;4.438;2022-08-21T13:20:10;24.30;98.90
26081;DHT22;13991;51.174;4.438;2022-08-21T13:22:44;24.10;99.20
26081;DHT22;13991;51.174;4.438;2022-08-21T13:25:15;24.00;99.30
26081;DHT22;13991;51.174;4.438;2022-08-21T13:27:42;24.10;99.40
26081;DHT22;13991;51.174;4.438;2022-08-21T13:30:17;24.10;99.80
26081;DHT22;13991;51.174;4.438;2022-08-21T13:32:45;24.10;99.90
26081;DHT22;13991;51.174;4.438;2022-08-21T13:35:19;24.30;99.90
26081;DHT22;13991;51.174;4.438;2022-08-21T13:37:48;24.40;99.60
26081;DHT22;13991;51.174;4.438;2022-08-21T13:40:18;24.30;99.30
26081;DHT22;13991;51.174;4.438;2022-08-21T13:42:46;24.40;99.70
26081;DHT22;13991;51.174;4.438;2022-08-21T13:45:32;24.40;98.50
26081;DHT22;13991;51.174;4.438;2022-08-21T13:48:00;24.70;98.00
26081;DHT22;13991;51.174;4.438;2022-08-21T13:50:26;24.70;97.40
26081;DHT22;13991;51.174;4.438;2022-08-21T13:53:00;25.00;97.00
26081;DHT22;13991;51.174;4.438;2022-08-21T13:55:40;25.30;96.80
26081;DHT22;13991;51.174;4.438;2022-08-21T13:58:08;25.30;96.50
26081;DHT22;13991;51.174;4.438;2022-08-21T14:00:57;24.90;96.50
26081;DHT22;13991;51.174;4.438;2022-08-21T14:03:43;24.60;95.70
26081;DHT22;13991;51.174;4.438;2022-08-21T14:06:22;24.50;95.80
26081;DHT22;13991;51.174;4.438;2022-08-21T14:09:00;24.60;95.90
26081;DHT22;13991;51.174;4.438;2022-08-21T14:11:32;24.60;96.00
26081;DHT22;13991;51.174;4.438;2022-08-21T14:14:04;24.40;96.10
26081;DHT22;13991;51.174;4.438;2022-08-21T14:16:52;24.20;96.60
26081;DHT22;13991;51.174;4.438;2022-08-21T14:19:25;24.30;96.90
26081;DHT22;13991;51.174;4.438;2022-08-21T14:21:51;24.40;96.70
26081;DHT22;13991;51.174;4.438;2022-08-21T14:26:54;25.00;95.50
26081;DHT22;13991;51.174;4.438;2022-08-21T14:29:22;25.20;95.50
26081;DHT22;13991;51.174;4.438;2022-08-21T14:31:57;25.20;95.30
26081;DHT22;13991;51.174;4.438;2022-08-21T14:34:28;25.20;95.60
26081;DHT22;13991;51.174;4.438;2022-08-21T14:36:55;25.40;95.60
26081;DHT22;13991;51.174;4.438;2022-08-21T14:39:21;25.30;95.10
26081;DHT22;13991;51.174;4.438;2022-08-21T14:41:47;25.10;95.40
26081;DHT22;13991;51.174;4.438;2022-08-21T14:44:15;24.90;95.10
26081;DHT22;13991;51.174;4.438;2022-08-21T14:46:42;24.80;95.30
26081;DHT22;13991;51.174;4.438;2022-08-21T14:49:07;24.80;95.20
26081;DHT22;13991;51.174;4.438;2022-08-21T14:51:33;24.60;95.40
26081;DHT22;13991;51.174;4.438;2022-08-21T14:53:59;24.70;95.40
26081;DHT22;13991;51.174;4.438;2022-08-21T14:56:25;24.90;95.60
26081;DHT22;13991;51.174;4.438;2022-08-21T14:58:51;25.00;95.00
26081;DHT22;13991;51.174;4.438;2022-08-21T15:01:20;25.20;95.00
26081;DHT22;13991;51.174;4.438;2022-08-21T15:03:47;25.20;95.00
26081;DHT22;13991;51.174;4.438;2022-08-21T15:06:14;25.00;94.10
26081;DHT22;13991;51.174;4.438;2022-08-21T15:08:41;25.10;94.80
26081;DHT22;13991;51.174;4.438;2022-08-21T15:11:10;25.00;94.50
26081;DHT22;13991;51.174;4.438;2022-08-21T15:13:36;25.00;94.30
26081;DHT22;13991;51.174;4.438;2022-08-21T15:16:03;25.00;94.30
26081;DHT22;13991;51.174;4.438;2022-08-21T15:18:29;25.10;94.40
26081;DHT22;13991;51.174;4.438;2022-08-21T15:20:56;25.20;94.70
26081;DHT22;13991;51.174;4.438;2022-08-21T15:23:22;25.00;94.90
26081;DHT22;13991;51.174;4.438;2022-08-21T15:25:49;25.10;94.60
26081;DHT22;13991;51.174;4.438;2022-08-21T15:28:16;25.10;94.90
26081;DHT22;13991;51.174;4.438;2022-08-21T15:30:44;25.00;94.70
26081;DHT22;13991;51.174;4.438;2022-08-21T15:33:10;24.70;94.40
26081;DHT22;13991;51.174;4.438;2022-08-21T15:35:36;24.70;95.20
26081;DHT22;13991;51.174;4.438;2022-08-21T15:38:03;24.70;95.90
26081;DHT22;13991;51.174;4.438;2022-08-21T15:40:28;24.90;94.90
26081;DHT22;13991;51.174;4.438;2022-08-21T15:43:03;24.90;95.00
26081;DHT22;13991;51.174;4.438;2022-08-21T15:45:53;24.80;94.70
26081;DHT22;13991;51.174;4.438;2022-08-21T15:48:25;24.80;95.30
26081;DHT22;13991;51.174;4.438;2022-08-21T15:50:52;24.90;94.60
26081;DHT22;13991;51.174;4.438;2022-08-21T15:53:18;24.80;95.10
26081;DHT22;13991;51.174;4.438;2022-08-21T15:55:44;24.50;94.70
26081;DHT22;13991;51.174;4.438;2022-08-21T15:58:15;24.70;94.40
26081;DHT22;13991;51.174;4.438;2022-08-21T16:00:44;24.70;94.40
26081;DHT22;13991;51.174;4.438;2022-08-21T16:03:12;24.70;94.60
26081;DHT22;13991;51.174;4.438;2022-08-21T16:05:43;24.50;95.10
26081;DHT22;13991;51.174;4.438;2022-08-21T16:08:10;24.60;95.40
26081;DHT22;13991;51.174;4.438;2022-08-21T16:10:39;24.50;95.30
26081;DHT22;13991;51.174;4.438;2022-08-21T16:13:11;24.50;95.80
26081;DHT22;13991;51.174;4.438;2022-08-21T16:15:43;24.50;95.70
26081;DHT22;13991;51.174;4.438;2022-08-21T16:18:18;24.70;95.80
26081;DHT22;13991;51.174;4.438;2022-08-21T16:20:44;24.60;95.30
26081;DHT22;13991;51.174;4.438;2022-08-21T16:23:10;24.60;95.60
26081;DHT22;13991;51.174;4.438;2022-08-21T16:25:39;24.60;95.60
26081;DHT22;13991;51.174;4.438;2022-08-21T16:28:08;24.60;95.40
26081;DHT22;13991;51.174;4.438;2022-08-21T16:30:34;24.50;95.70
26081;DHT22;13991;51.174;4.438;2022-08-21T16:33:01;24.40;96.00
26081;DHT22;13991;51.174;4.438;2022-08-21T16:35:28;24.30;96.20
26081;DHT22;13991;51.174;4.438;2022-08-21T16:37:55;24.40;96.50
26081;DHT22;13991;51.174;4.438;2022-08-21T16:40:21;24.40;96.70
26081;DHT22;13991;51.174;4.438;2022-08-21T16:43:07;24.30;96.60
26081;DHT22;13991;51.174;4.438;2022-08-21T16:45:33;24.30;96.50
26081;DHT22;13991;51.174;4.438;2022-08-21T16:48:00;24.20;96.70
26081;DHT22;13991;51.174;4.438;2022-08-21T16:50:28;24.30;96.40
26081;DHT22;13991;51.174;4.438;2022-08-21T16:52:54;24.30;96.50
26081;DHT22;13991;51.174;4.438;2022-08-21T16:55:20;24.40;96.50
26081;DHT22;13991;51.174;4.438;2022-08-21T16:57:45;24.40;96.60
26081;DHT22;13991;51.174;4.438;2022-08-21T17:00:12;24.40;96.80
26081;DHT22;13991;51.174;4.438;2022-08-21T17:02:47;24.40;96.80
26081;DHT22;13991;51.174;4.438;2022-08-21T17:05:14;24.50;96.90
26081;DHT22;13991;51.174;4.438;2022-08-21T17:07:47;24.50;96.80
26081;DHT22;13991;51.174;4.438;2022-08-21T17:10:14;24.60;96.60
26081;DHT22;13991;51.174;4.438;2022-08-21T17:12:42;24.40;96.80